Suwalki, Poland
Current Conditions -  °F | °C
As of 4:00 PM on Thursday 27 Nov 2014 (Local Time) from UMMG Reporting Station
Overcast Overcast  
Wind Chill: 13°   Ceiling: 1200
Heat Index: 23°   Visibility: 4mi
Dew Point: 18°   Wind: 9mph
Humidity: 80%   Direction: 90°E
Pressure: 30.33"   Gusts: NA
Location:  54.11°N, 22.94°E
Report Text: UMMG 271400Z 09004MPS 7000 OVC012 M05/M08 Q1027 NOSIG
Loading
Personal Weather Stations






























Interactive Weather Map New forecast layout! Learn more

10-Day Weather Forecast

Advertisements
Track Severe Weather on mobile